sensor_id;sensor_type;location;lat;lon;timestamp;P1;durP1;ratioP1;P2;durP2;ratioP2
17696;SDS011;8967;47.984;7.842;2022-08-19T00:01:55;7.55;;;6.75;;
17696;SDS011;8967;47.984;7.842;2022-08-19T00:04:24;7.90;;;6.82;;
17696;SDS011;8967;47.984;7.842;2022-08-19T00:06:54;7.85;;;7.03;;
17696;SDS011;8967;47.984;7.842;2022-08-19T00:09:25;6.93;;;6.28;;
17696;SDS011;8967;47.984;7.842;2022-08-19T00:11:56;6.78;;;6.13;;
17696;SDS011;8967;47.984;7.842;2022-08-19T00:14:26;7.60;;;6.57;;
17696;SDS011;8967;47.984;7.842;2022-08-19T00:16:56;8.43;;;6.50;;
17696;SDS011;8967;47.984;7.842;2022-08-19T00:19:23;8.57;;;6.97;;
17696;SDS011;8967;47.984;7.842;2022-08-19T00:21:51;7.30;;;6.60;;
17696;SDS011;8967;47.984;7.842;2022-08-19T00:24:19;8.50;;;7.20;;
17696;SDS011;8967;47.984;7.842;2022-08-19T00:26:46;8.52;;;6.47;;
17696;SDS011;8967;47.984;7.842;2022-08-19T00:29:15;8.20;;;6.70;;
17696;SDS011;8967;47.984;7.842;2022-08-19T00:31:44;7.15;;;6.45;;
17696;SDS011;8967;47.984;7.842;2022-08-19T00:34:12;7.65;;;6.25;;
17696;SDS011;8967;47.984;7.842;2022-08-19T00:36:41;6.70;;;5.85;;
17696;SDS011;8967;47.984;7.842;2022-08-19T00:39:09;8.65;;;7.03;;
17696;SDS011;8967;47.984;7.842;2022-08-19T00:41:36;7.90;;;6.38;;
17696;SDS011;8967;47.984;7.842;2022-08-19T00:44:05;9.10;;;7.03;;
17696;SDS011;8967;47.984;7.842;2022-08-19T00:46:36;8.07;;;7.30;;
17696;SDS011;8967;47.984;7.842;2022-08-19T00:49:06;7.70;;;7.00;;
17696;SDS011;8967;47.984;7.842;2022-08-19T00:51:40;7.53;;;6.60;;
17696;SDS011;8967;47.984;7.842;2022-08-19T00:54:08;8.00;;;7.20;;
17696;SDS011;8967;47.984;7.842;2022-08-19T00:56:36;9.55;;;7.45;;
17696;SDS011;8967;47.984;7.842;2022-08-19T00:59:03;9.43;;;7.45;;
17696;SDS011;8967;47.984;7.842;2022-08-19T01:01:37;8.20;;;7.40;;
17696;SDS011;8967;47.984;7.842;2022-08-19T01:04:07;8.23;;;7.43;;
17696;SDS011;8967;47.984;7.842;2022-08-19T01:06:35;9.75;;;8.18;;
17696;SDS011;8967;47.984;7.842;2022-08-19T01:09:03;9.23;;;7.00;;
17696;SDS011;8967;47.984;7.842;2022-08-19T01:11:31;8.93;;;7.47;;
17696;SDS011;8967;47.984;7.842;2022-08-19T01:14:01;11.15;;;8.20;;
17696;SDS011;8967;47.984;7.842;2022-08-19T01:16:29;7.85;;;7.15;;
17696;SDS011;8967;47.984;7.842;2022-08-19T01:18:59;8.43;;;7.53;;
17696;SDS011;8967;47.984;7.842;2022-08-19T01:21:28;8.60;;;7.80;;
17696;SDS011;8967;47.984;7.842;2022-08-19T01:24:02;9.43;;;8.52;;
17696;SDS011;8967;47.984;7.842;2022-08-19T01:26:30;8.98;;;8.10;;
17696;SDS011;8967;47.984;7.842;2022-08-19T01:28:58;9.10;;;8.20;;
17696;SDS011;8967;47.984;7.842;2022-08-19T01:31:27;9.15;;;7.85;;
17696;SDS011;8967;47.984;7.842;2022-08-19T01:33:56;10.13;;;8.15;;
17696;SDS011;8967;47.984;7.842;2022-08-19T01:36:25;11.25;;;8.40;;
17696;SDS011;8967;47.984;7.842;2022-08-19T01:38:56;9.73;;;8.75;;
17696;SDS011;8967;47.984;7.842;2022-08-19T01:41:26;9.85;;;8.80;;
17696;SDS011;8967;47.984;7.842;2022-08-19T01:43:53;10.50;;;8.60;;
17696;SDS011;8967;47.984;7.842;2022-08-19T01:46:21;10.20;;;8.07;;
17696;SDS011;8967;47.984;7.842;2022-08-19T01:48:50;8.15;;;7.35;;
17696;SDS011;8967;47.984;7.842;2022-08-19T01:51:17;10.65;;;8.38;;
17696;SDS011;8967;47.984;7.842;2022-08-19T01:53:47;9.85;;;8.63;;
17696;SDS011;8967;47.984;7.842;2022-08-19T01:56:15;10.48;;;8.23;;
17696;SDS011;8967;47.984;7.842;2022-08-19T01:58:44;12.10;;;8.75;;
17696;SDS011;8967;47.984;7.842;2022-08-19T02:01:15;10.48;;;8.60;;
17696;SDS011;8967;47.984;7.842;2022-08-19T02:03:43;9.10;;;7.78;;
17696;SDS011;8967;47.984;7.842;2022-08-19T02:06:10;9.27;;;7.93;;
17696;SDS011;8967;47.984;7.842;2022-08-19T02:08:37;9.63;;;8.60;;
17696;SDS011;8967;47.984;7.842;2022-08-19T02:11:05;13.13;;;8.40;;
17696;SDS011;8967;47.984;7.842;2022-08-19T02:13:33;9.52;;;8.52;;
17696;SDS011;8967;47.984;7.842;2022-08-19T02:16:03;10.65;;;9.05;;
17696;SDS011;8967;47.984;7.842;2022-08-19T02:18:30;10.23;;;8.45;;
17696;SDS011;8967;47.984;7.842;2022-08-19T02:20:58;9.10;;;7.88;;
17696;SDS011;8967;47.984;7.842;2022-08-19T02:23:28;9.32;;;8.43;;
17696;SDS011;8967;47.984;7.842;2022-08-19T02:25:55;9.45;;;8.55;;
17696;SDS011;8967;47.984;7.842;2022-08-19T02:28:22;9.73;;;8.07;;
17696;SDS011;8967;47.984;7.842;2022-08-19T02:30:49;10.45;;;8.07;;
17696;SDS011;8967;47.984;7.842;2022-08-19T02:33:20;10.48;;;8.70;;
17696;SDS011;8967;47.984;7.842;2022-08-19T02:35:47;9.57;;;8.68;;
17696;SDS011;8967;47.984;7.842;2022-08-19T02:38:14;9.15;;;8.25;;
17696;SDS011;8967;47.984;7.842;2022-08-19T02:40:54;9.45;;;8.52;;
17696;SDS011;8967;47.984;7.842;2022-08-19T02:43:22;9.43;;;8.25;;
17696;SDS011;8967;47.984;7.842;2022-08-19T02:45:53;8.45;;;7.63;;
17696;SDS011;8967;47.984;7.842;2022-08-19T02:48:24;10.73;;;8.65;;
17696;SDS011;8967;47.984;7.842;2022-08-19T02:50:52;9.82;;;8.90;;
17696;SDS011;8967;47.984;7.842;2022-08-19T02:53:20;11.32;;;9.60;;
17696;SDS011;8967;47.984;7.842;2022-08-19T02:55:48;9.60;;;8.30;;
17696;SDS011;8967;47.984;7.842;2022-08-19T02:58:17;9.80;;;8.90;;
17696;SDS011;8967;47.984;7.842;2022-08-19T03:00:45;10.43;;;8.55;;
17696;SDS011;8967;47.984;7.842;2022-08-19T03:03:13;10.63;;;8.95;;
17696;SDS011;8967;47.984;7.842;2022-08-19T03:05:44;9.63;;;8.55;;
17696;SDS011;8967;47.984;7.842;2022-08-19T03:08:12;10.57;;;8.63;;
17696;SDS011;8967;47.984;7.842;2022-08-19T03:10:40;9.00;;;7.95;;
17696;SDS011;8967;47.984;7.842;2022-08-19T03:13:09;10.93;;;8.98;;
17696;SDS011;8967;47.984;7.842;2022-08-19T03:15:39;11.52;;;8.77;;
17696;SDS011;8967;47.984;7.842;2022-08-19T03:18:07;11.25;;;10.05;;
17696;SDS011;8967;47.984;7.842;2022-08-19T03:20:39;10.32;;;8.75;;
17696;SDS011;8967;47.984;7.842;2022-08-19T03:23:11;7.95;;;7.03;;
17696;SDS011;8967;47.984;7.842;2022-08-19T03:25:39;12.45;;;9.13;;
17696;SDS011;8967;47.984;7.842;2022-08-19T03:28:08;11.70;;;8.88;;
17696;SDS011;8967;47.984;7.842;2022-08-19T03:30:35;10.15;;;9.15;;
17696;SDS011;8967;47.984;7.842;2022-08-19T03:33:02;10.60;;;8.50;;
17696;SDS011;8967;47.984;7.842;2022-08-19T03:35:31;10.52;;;9.10;;
17696;SDS011;8967;47.984;7.842;2022-08-19T03:37:58;9.18;;;8.27;;
17696;SDS011;8967;47.984;7.842;2022-08-19T03:40:27;10.65;;;9.40;;
17696;SDS011;8967;47.984;7.842;2022-08-19T03:42:54;10.07;;;9.00;;
17696;SDS011;8967;47.984;7.842;2022-08-19T03:45:21;9.48;;;8.55;;
17696;SDS011;8967;47.984;7.842;2022-08-19T03:47:51;10.68;;;8.27;;
17696;SDS011;8967;47.984;7.842;2022-08-19T03:50:18;10.10;;;8.93;;
17696;SDS011;8967;47.984;7.842;2022-08-19T03:52:47;10.15;;;9.15;;
17696;SDS011;8967;47.984;7.842;2022-08-19T03:55:16;9.77;;;8.77;;
17696;SDS011;8967;47.984;7.842;2022-08-19T03:57:45;12.13;;;9.57;;
17696;SDS011;8967;47.984;7.842;2022-08-19T04:00:14;10.80;;;9.70;;
17696;SDS011;8967;47.984;7.842;2022-08-19T04:02:41;9.75;;;8.48;;
17696;SDS011;8967;47.984;7.842;2022-08-19T04:05:09;10.30;;;9.27;;
17696;SDS011;8967;47.984;7.842;2022-08-19T04:07:39;9.68;;;8.68;;
17696;SDS011;8967;47.984;7.842;2022-08-19T04:10:06;10.50;;;9.50;;
17696;SDS011;8967;47.984;7.842;2022-08-19T04:12:34;9.98;;;8.98;;
17696;SDS011;8967;47.984;7.842;2022-08-19T04:15:03;13.07;;;10.35;;
17696;SDS011;8967;47.984;7.842;2022-08-19T04:17:31;11.65;;;9.77;;
17696;SDS011;8967;47.984;7.842;2022-08-19T04:19:58;11.98;;;9.10;;
17696;SDS011;8967;47.984;7.842;2022-08-19T04:22:26;12.45;;;9.52;;
17696;SDS011;8967;47.984;7.842;2022-08-19T04:24:53;12.32;;;9.35;;
17696;SDS011;8967;47.984;7.842;2022-08-19T04:27:20;12.10;;;10.15;;
17696;SDS011;8967;47.984;7.842;2022-08-19T04:29:47;11.48;;;10.27;;
17696;SDS011;8967;47.984;7.842;2022-08-19T04:32:15;10.45;;;9.35;;
17696;SDS011;8967;47.984;7.842;2022-08-19T04:34:42;10.20;;;9.20;;
17696;SDS011;8967;47.984;7.842;2022-08-19T04:37:11;10.10;;;9.10;;
17696;SDS011;8967;47.984;7.842;2022-08-19T04:39:39;12.02;;;9.68;;
17696;SDS011;8967;47.984;7.842;2022-08-19T04:42:23;12.13;;;9.60;;
17696;SDS011;8967;47.984;7.842;2022-08-19T04:45:07;10.80;;;9.70;;
17696;SDS011;8967;47.984;7.842;2022-08-19T04:47:38;14.38;;;9.82;;
17696;SDS011;8967;47.984;7.842;2022-08-19T04:50:07;11.15;;;9.98;;
17696;SDS011;8967;47.984;7.842;2022-08-19T04:52:37;11.80;;;9.35;;
17696;SDS011;8967;47.984;7.842;2022-08-19T04:55:07;12.75;;;9.23;;
17696;SDS011;8967;47.984;7.842;2022-08-19T04:57:35;11.05;;;9.95;;
17696;SDS011;8967;47.984;7.842;2022-08-19T05:00:05;10.65;;;9.40;;
17696;SDS011;8967;47.984;7.842;2022-08-19T05:02:33;9.23;;;8.32;;
17696;SDS011;8967;47.984;7.842;2022-08-19T05:05:02;11.63;;;9.52;;
17696;SDS011;8967;47.984;7.842;2022-08-19T05:07:31;10.18;;;8.77;;
17696;SDS011;8967;47.984;7.842;2022-08-19T05:09:58;10.55;;;9.48;;
17696;SDS011;8967;47.984;7.842;2022-08-19T05:12:28;13.43;;;9.65;;
17696;SDS011;8967;47.984;7.842;2022-08-19T05:14:55;11.73;;;10.18;;
17696;SDS011;8967;47.984;7.842;2022-08-19T05:17:25;10.27;;;9.27;;
17696;SDS011;8967;47.984;7.842;2022-08-19T05:19:53;11.85;;;9.52;;
17696;SDS011;8967;47.984;7.842;2022-08-19T05:22:39;10.55;;;9.23;;
17696;SDS011;8967;47.984;7.842;2022-08-19T05:25:07;10.80;;;9.27;;
17696;SDS011;8967;47.984;7.842;2022-08-19T05:27:37;12.88;;;9.85;;
17696;SDS011;8967;47.984;7.842;2022-08-19T05:30:05;10.85;;;9.75;;
17696;SDS011;8967;47.984;7.842;2022-08-19T05:32:32;10.38;;;9.25;;
17696;SDS011;8967;47.984;7.842;2022-08-19T05:35:00;10.35;;;9.07;;
17696;SDS011;8967;47.984;7.842;2022-08-19T05:37:29;9.80;;;8.82;;
17696;SDS011;8967;47.984;7.842;2022-08-19T05:39:59;15.35;;;9.68;;
17696;SDS011;8967;47.984;7.842;2022-08-19T05:42:27;8.75;;;7.85;;
17696;SDS011;8967;47.984;7.842;2022-08-19T05:44:54;14.43;;;9.63;;
17696;SDS011;8967;47.984;7.842;2022-08-19T05:47:21;13.23;;;9.30;;
17696;SDS011;8967;47.984;7.842;2022-08-19T05:49:48;10.90;;;9.32;;
17696;SDS011;8967;47.984;7.842;2022-08-19T05:52:16;10.65;;;9.63;;
17696;SDS011;8967;47.984;7.842;2022-08-19T05:54:43;11.20;;;9.18;;
17696;SDS011;8967;47.984;7.842;2022-08-19T05:57:14;10.88;;;8.82;;
17696;SDS011;8967;47.984;7.842;2022-08-19T05:59:41;10.57;;;9.48;;
17696;SDS011;8967;47.984;7.842;2022-08-19T06:02:09;10.23;;;9.23;;
17696;SDS011;8967;47.984;7.842;2022-08-19T06:04:36;11.95;;;8.55;;
17696;SDS011;8967;47.984;7.842;2022-08-19T06:07:04;9.77;;;8.40;;
17696;SDS011;8967;47.984;7.842;2022-08-19T06:09:31;8.85;;;7.95;;
17696;SDS011;8967;47.984;7.842;2022-08-19T06:11:58;10.00;;;8.88;;
17696;SDS011;8967;47.984;7.842;2022-08-19T06:14:30;9.65;;;8.43;;
17696;SDS011;8967;47.984;7.842;2022-08-19T06:16:59;9.60;;;8.68;;
17696;SDS011;8967;47.984;7.842;2022-08-19T06:19:28;10.43;;;8.95;;
17696;SDS011;8967;47.984;7.842;2022-08-19T06:21:56;9.85;;;8.85;;
17696;SDS011;8967;47.984;7.842;2022-08-19T06:24:24;10.25;;;9.25;;
17696;SDS011;8967;47.984;7.842;2022-08-19T06:26:53;10.95;;;9.05;;
17696;SDS011;8967;47.984;7.842;2022-08-19T06:29:22;10.32;;;9.25;;
17696;SDS011;8967;47.984;7.842;2022-08-19T06:31:53;10.57;;;9.50;;
17696;SDS011;8967;47.984;7.842;2022-08-19T06:34:22;9.57;;;8.52;;
17696;SDS011;8967;47.984;7.842;2022-08-19T06:36:50;10.38;;;9.27;;
17696;SDS011;8967;47.984;7.842;2022-08-19T06:39:19;10.25;;;9.10;;
17696;SDS011;8967;47.984;7.842;2022-08-19T06:41:51;10.27;;;8.95;;
17696;SDS011;8967;47.984;7.842;2022-08-19T06:44:20;9.23;;;8.32;;
17696;SDS011;8967;47.984;7.842;2022-08-19T06:46:48;11.63;;;9.57;;
17696;SDS011;8967;47.984;7.842;2022-08-19T06:49:17;10.30;;;9.35;;
17696;SDS011;8967;47.984;7.842;2022-08-19T06:51:48;11.10;;;8.80;;
17696;SDS011;8967;47.984;7.842;2022-08-19T06:54:16;10.85;;;9.75;;
17696;SDS011;8967;47.984;7.842;2022-08-19T06:56:44;11.73;;;9.95;;
17696;SDS011;8967;47.984;7.842;2022-08-19T06:59:14;9.85;;;8.75;;
17696;SDS011;8967;47.984;7.842;2022-08-19T07:01:44;9.63;;;8.63;;
17696;SDS011;8967;47.984;7.842;2022-08-19T07:04:12;10.75;;;9.65;;
17696;SDS011;8967;47.984;7.842;2022-08-19T07:06:43;11.30;;;9.32;;
17696;SDS011;8967;47.984;7.842;2022-08-19T07:09:11;10.55;;;9.45;;
17696;SDS011;8967;47.984;7.842;2022-08-19T07:11:43;11.55;;;9.82;;
17696;SDS011;8967;47.984;7.842;2022-08-19T07:14:14;11.02;;;9.48;;
17696;SDS011;8967;47.984;7.842;2022-08-19T07:16:43;10.68;;;9.57;;
17696;SDS011;8967;47.984;7.842;2022-08-19T07:19:11;11.52;;;9.82;;
17696;SDS011;8967;47.984;7.842;2022-08-19T07:21:39;13.63;;;11.30;;
17696;SDS011;8967;47.984;7.842;2022-08-19T07:24:08;11.95;;;10.73;;
17696;SDS011;8967;47.984;7.842;2022-08-19T07:26:37;12.48;;;10.80;;
17696;SDS011;8967;47.984;7.842;2022-08-19T07:29:06;13.70;;;11.95;;
17696;SDS011;8967;47.984;7.842;2022-08-19T07:31:34;12.23;;;10.95;;
17696;SDS011;8967;47.984;7.842;2022-08-19T07:34:05;11.60;;;10.43;;
17696;SDS011;8967;47.984;7.842;2022-08-19T07:36:34;15.82;;;12.93;;
17696;SDS011;8967;47.984;7.842;2022-08-19T07:39:07;15.02;;;12.88;;
17696;SDS011;8967;47.984;7.842;2022-08-19T07:41:38;15.88;;;11.70;;
17696;SDS011;8967;47.984;7.842;2022-08-19T07:44:06;12.60;;;11.30;;
17696;SDS011;8967;47.984;7.842;2022-08-19T07:46:34;14.32;;;12.13;;
17696;SDS011;8967;47.984;7.842;2022-08-19T07:49:05;12.27;;;10.98;;
17696;SDS011;8967;47.984;7.842;2022-08-19T07:51:36;13.65;;;12.07;;
17696;SDS011;8967;47.984;7.842;2022-08-19T07:54:03;14.63;;;11.00;;
17696;SDS011;8967;47.984;7.842;2022-08-19T07:56:32;12.95;;;11.50;;
17696;SDS011;8967;47.984;7.842;2022-08-19T07:58:59;16.08;;;13.00;;
17696;SDS011;8967;47.984;7.842;2022-08-19T08:01:26;15.73;;;12.57;;
17696;SDS011;8967;47.984;7.842;2022-08-19T08:03:54;17.30;;;13.35;;
17696;SDS011;8967;47.984;7.842;2022-08-19T08:06:40;16.50;;;14.07;;
17696;SDS011;8967;47.984;7.842;2022-08-19T08:09:25;17.38;;;13.63;;
17696;SDS011;8967;47.984;7.842;2022-08-19T08:11:59;15.68;;;14.00;;
17696;SDS011;8967;47.984;7.842;2022-08-19T08:14:29;14.63;;;12.40;;
17696;SDS011;8967;47.984;7.842;2022-08-19T08:17:00;18.13;;;15.07;;
17696;SDS011;8967;47.984;7.842;2022-08-19T08:19:31;17.38;;;14.07;;
17696;SDS011;8967;47.984;7.842;2022-08-19T08:21:59;17.65;;;14.60;;
17696;SDS011;8967;47.984;7.842;2022-08-19T08:24:27;14.60;;;13.10;;
17696;SDS011;8967;47.984;7.842;2022-08-19T08:26:55;14.05;;;12.55;;
17696;SDS011;8967;47.984;7.842;2022-08-19T08:29:27;18.65;;;16.38;;
17696;SDS011;8967;47.984;7.842;2022-08-19T08:31:56;16.23;;;13.50;;
17696;SDS011;8967;47.984;7.842;2022-08-19T08:34:23;19.50;;;15.73;;
17696;SDS011;8967;47.984;7.842;2022-08-19T08:36:50;16.33;;;14.18;;
17696;SDS011;8967;47.984;7.842;2022-08-19T08:39:19;17.85;;;15.77;;
17696;SDS011;8967;47.984;7.842;2022-08-19T08:41:49;17.42;;;14.73;;
17696;SDS011;8967;47.984;7.842;2022-08-19T08:44:28;22.80;;;17.67;;
17696;SDS011;8967;47.984;7.842;2022-08-19T08:47:05;18.85;;;14.50;;
17696;SDS011;8967;47.984;7.842;2022-08-19T08:49:40;20.20;;;15.18;;
17696;SDS011;8967;47.984;7.842;2022-08-19T08:52:13;17.70;;;14.68;;
17696;SDS011;8967;47.984;7.842;2022-08-19T08:54:46;16.42;;;13.93;;
17696;SDS011;8967;47.984;7.842;2022-08-19T08:57:20;15.88;;;14.02;;
17696;SDS011;8967;47.984;7.842;2022-08-19T08:59:54;19.00;;;15.13;;
17696;SDS011;8967;47.984;7.842;2022-08-19T09:02:27;18.45;;;15.63;;
17696;SDS011;8967;47.984;7.842;2022-08-19T09:04:54;23.92;;;16.98;;
17696;SDS011;8967;47.984;7.842;2022-08-19T09:07:25;21.67;;;17.35;;
17696;SDS011;8967;47.984;7.842;2022-08-19T09:10:08;16.17;;;14.25;;
17696;SDS011;8967;47.984;7.842;2022-08-19T09:12:43;17.83;;;15.93;;
17696;SDS011;8967;47.984;7.842;2022-08-19T09:15:16;22.55;;;17.65;;
17696;SDS011;8967;47.984;7.842;2022-08-19T09:17:48;18.05;;;15.90;;
17696;SDS011;8967;47.984;7.842;2022-08-19T09:20:18;19.67;;;17.10;;
17696;SDS011;8967;47.984;7.842;2022-08-19T09:22:46;20.30;;;17.13;;
17696;SDS011;8967;47.984;7.842;2022-08-19T09:25:15;19.48;;;17.08;;
17696;SDS011;8967;47.984;7.842;2022-08-19T09:27:45;21.98;;;17.52;;
17696;SDS011;8967;47.984;7.842;2022-08-19T09:30:16;19.67;;;17.58;;
17696;SDS011;8967;47.984;7.842;2022-08-19T09:32:46;20.25;;;17.00;;
17696;SDS011;8967;47.984;7.842;2022-08-19T09:35:14;20.15;;;16.88;;
17696;SDS011;8967;47.984;7.842;2022-08-19T09:37:42;22.00;;;17.58;;
17696;SDS011;8967;47.984;7.842;2022-08-19T09:40:12;23.80;;;18.13;;
17696;SDS011;8967;47.984;7.842;2022-08-19T09:42:41;20.77;;;16.80;;
17696;SDS011;8967;47.984;7.842;2022-08-19T09:45:12;20.98;;;16.58;;
17696;SDS011;8967;47.984;7.842;2022-08-19T09:47:43;18.45;;;15.85;;
17696;SDS011;8967;47.984;7.842;2022-08-19T09:50:11;21.50;;;16.67;;
17696;SDS011;8967;47.984;7.842;2022-08-19T09:52:39;22.75;;;16.92;;
17696;SDS011;8967;47.984;7.842;2022-08-19T09:55:08;21.85;;;17.15;;
17696;SDS011;8967;47.984;7.842;2022-08-19T09:57:36;20.73;;;17.60;;
17696;SDS011;8967;47.984;7.842;2022-08-19T10:00:05;20.58;;;17.25;;
17696;SDS011;8967;47.984;7.842;2022-08-19T10:02:34;31.67;;;20.23;;
17696;SDS011;8967;47.984;7.842;2022-08-19T10:05:06;21.95;;;18.30;;
17696;SDS011;8967;47.984;7.842;2022-08-19T10:07:50;18.60;;;15.95;;
17696;SDS011;8967;47.984;7.842;2022-08-19T10:10:17;19.98;;;16.27;;
17696;SDS011;8967;47.984;7.842;2022-08-19T10:12:47;22.70;;;18.00;;
17696;SDS011;8967;47.984;7.842;2022-08-19T10:15:14;20.20;;;16.85;;
17696;SDS011;8967;47.984;7.842;2022-08-19T10:17:45;20.55;;;16.67;;
17696;SDS011;8967;47.984;7.842;2022-08-19T10:20:13;19.35;;;15.35;;
17696;SDS011;8967;47.984;7.842;2022-08-19T10:22:43;20.80;;;17.88;;
17696;SDS011;8967;47.984;7.842;2022-08-19T10:25:10;20.20;;;16.85;;
17696;SDS011;8967;47.984;7.842;2022-08-19T10:27:41;20.05;;;16.40;;
17696;SDS011;8967;47.984;7.842;2022-08-19T10:30:09;19.15;;;15.18;;
17696;SDS011;8967;47.984;7.842;2022-08-19T10:32:37;18.75;;;14.90;;
17696;SDS011;8967;47.984;7.842;2022-08-19T10:35:04;20.98;;;15.45;;
17696;SDS011;8967;47.984;7.842;2022-08-19T10:37:37;21.23;;;15.48;;
17696;SDS011;8967;47.984;7.842;2022-08-19T10:40:06;16.55;;;13.40;;
17696;SDS011;8967;47.984;7.842;2022-08-19T10:42:40;21.45;;;17.25;;
17696;SDS011;8967;47.984;7.842;2022-08-19T10:45:09;19.30;;;14.73;;
17696;SDS011;8967;47.984;7.842;2022-08-19T10:47:37;16.98;;;14.15;;
17696;SDS011;8967;47.984;7.842;2022-08-19T10:50:06;18.27;;;15.13;;
17696;SDS011;8967;47.984;7.842;2022-08-19T10:52:53;19.50;;;15.35;;
17696;SDS011;8967;47.984;7.842;2022-08-19T10:55:22;19.42;;;16.33;;
17696;SDS011;8967;47.984;7.842;2022-08-19T10:58:11;21.63;;;16.50;;
17696;SDS011;8967;47.984;7.842;2022-08-19T11:00:39;21.92;;;17.33;;
17696;SDS011;8967;47.984;7.842;2022-08-19T11:03:10;23.50;;;15.88;;
17696;SDS011;8967;47.984;7.842;2022-08-19T11:05:37;19.35;;;16.85;;
17696;SDS011;8967;47.984;7.842;2022-08-19T11:08:07;20.33;;;15.98;;
17696;SDS011;8967;47.984;7.842;2022-08-19T11:10:37;20.77;;;15.82;;
17696;SDS011;8967;47.984;7.842;2022-08-19T11:13:10;19.92;;;15.80;;
17696;SDS011;8967;47.984;7.842;2022-08-19T11:15:37;20.45;;;16.25;;
17696;SDS011;8967;47.984;7.842;2022-08-19T11:18:04;15.48;;;13.88;;
17696;SDS011;8967;47.984;7.842;2022-08-19T11:20:35;21.42;;;17.45;;
17696;SDS011;8967;47.984;7.842;2022-08-19T11:23:02;20.58;;;15.82;;
17696;SDS011;8967;47.984;7.842;2022-08-19T11:25:33;16.08;;;14.25;;
17696;SDS011;8967;47.984;7.842;2022-08-19T11:28:00;19.38;;;15.75;;
17696;SDS011;8967;47.984;7.842;2022-08-19T11:30:28;23.33;;;16.33;;
17696;SDS011;8967;47.984;7.842;2022-08-19T11:32:55;24.27;;;17.52;;
17696;SDS011;8967;47.984;7.842;2022-08-19T11:35:22;25.63;;;19.65;;
17696;SDS011;8967;47.984;7.842;2022-08-19T11:37:49;25.33;;;17.10;;
17696;SDS011;8967;47.984;7.842;2022-08-19T11:40:18;23.30;;;18.27;;
17696;SDS011;8967;47.984;7.842;2022-08-19T11:42:49;21.05;;;17.13;;
17696;SDS011;8967;47.984;7.842;2022-08-19T11:45:22;22.73;;;19.13;;
17696;SDS011;8967;47.984;7.842;2022-08-19T11:47:52;22.35;;;18.13;;
17696;SDS011;8967;47.984;7.842;2022-08-19T11:50:23;21.77;;;16.83;;
17696;SDS011;8967;47.984;7.842;2022-08-19T11:52:52;25.33;;;17.70;;
17696;SDS011;8967;47.984;7.842;2022-08-19T11:55:20;22.30;;;17.15;;
17696;SDS011;8967;47.984;7.842;2022-08-19T11:57:49;26.70;;;19.58;;
17696;SDS011;8967;47.984;7.842;2022-08-19T12:00:16;21.40;;;16.20;;
17696;SDS011;8967;47.984;7.842;2022-08-19T12:02:44;34.17;;;24.75;;
17696;SDS011;8967;47.984;7.842;2022-08-19T12:05:11;20.75;;;16.75;;
17696;SDS011;8967;47.984;7.842;2022-08-19T12:07:38;23.42;;;19.13;;
17696;SDS011;8967;47.984;7.842;2022-08-19T12:10:06;26.42;;;21.40;;
17696;SDS011;8967;47.984;7.842;2022-08-19T12:12:33;22.95;;;18.83;;
17696;SDS011;8967;47.984;7.842;2022-08-19T12:15:02;18.30;;;16.20;;
17696;SDS011;8967;47.984;7.842;2022-08-19T12:17:30;18.90;;;15.32;;
17696;SDS011;8967;47.984;7.842;2022-08-19T12:19:57;17.15;;;15.25;;
17696;SDS011;8967;47.984;7.842;2022-08-19T12:22:24;17.25;;;14.68;;
17696;SDS011;8967;47.984;7.842;2022-08-19T12:24:51;15.40;;;13.32;;
17696;SDS011;8967;47.984;7.842;2022-08-19T12:27:20;15.40;;;13.80;;
17696;SDS011;8967;47.984;7.842;2022-08-19T12:29:47;17.48;;;14.18;;
17696;SDS011;8967;47.984;7.842;2022-08-19T12:32:15;13.32;;;11.57;;
17696;SDS011;8967;47.984;7.842;2022-08-19T12:34:43;14.82;;;13.27;;
17696;SDS011;8967;47.984;7.842;2022-08-19T12:37:12;14.15;;;12.35;;
17696;SDS011;8967;47.984;7.842;2022-08-19T12:39:40;19.20;;;15.00;;
17696;SDS011;8967;47.984;7.842;2022-08-19T12:42:08;17.75;;;14.00;;
17696;SDS011;8967;47.984;7.842;2022-08-19T12:44:36;12.82;;;11.52;;
17696;SDS011;8967;47.984;7.842;2022-08-19T12:47:05;15.82;;;14.15;;
17696;SDS011;8967;47.984;7.842;2022-08-19T12:49:33;15.00;;;11.98;;
17696;SDS011;8967;47.984;7.842;2022-08-19T12:52:02;16.45;;;13.93;;
17696;SDS011;8967;47.984;7.842;2022-08-19T12:54:32;16.00;;;13.27;;
17696;SDS011;8967;47.984;7.842;2022-08-19T12:56:59;14.50;;;11.90;;
17696;SDS011;8967;47.984;7.842;2022-08-19T12:59:26;17.35;;;14.30;;
17696;SDS011;8967;47.984;7.842;2022-08-19T13:01:53;16.35;;;13.38;;
17696;SDS011;8967;47.984;7.842;2022-08-19T13:04:20;12.18;;;10.88;;
17696;SDS011;8967;47.984;7.842;2022-08-19T13:06:49;22.02;;;14.18;;
17696;SDS011;8967;47.984;7.842;2022-08-19T13:09:19;18.17;;;13.60;;
17696;SDS011;8967;47.984;7.842;2022-08-19T13:11:46;13.25;;;11.88;;
17696;SDS011;8967;47.984;7.842;2022-08-19T13:14:13;12.27;;;11.07;;
17696;SDS011;8967;47.984;7.842;2022-08-19T13:16:40;13.98;;;12.55;;
17696;SDS011;8967;47.984;7.842;2022-08-19T13:19:09;13.23;;;11.93;;
17696;SDS011;8967;47.984;7.842;2022-08-19T13:21:38;16.75;;;13.98;;
17696;SDS011;8967;47.984;7.842;2022-08-19T13:24:09;16.38;;;13.05;;
17696;SDS011;8967;47.984;7.842;2022-08-19T13:26:36;15.60;;;13.85;;
17696;SDS011;8967;47.984;7.842;2022-08-19T13:29:05;15.75;;;14.15;;
17696;SDS011;8967;47.984;7.842;2022-08-19T13:31:53;17.05;;;13.10;;
17696;SDS011;8967;47.984;7.842;2022-08-19T13:34:37;13.63;;;11.85;;
17696;SDS011;8967;47.984;7.842;2022-08-19T13:37:04;15.82;;;13.63;;
17696;SDS011;8967;47.984;7.842;2022-08-19T13:39:34;13.30;;;12.00;;
17696;SDS011;8967;47.984;7.842;2022-08-19T13:42:02;14.98;;;13.25;;
17696;SDS011;8967;47.984;7.842;2022-08-19T13:44:32;17.67;;;13.52;;
17696;SDS011;8967;47.984;7.842;2022-08-19T13:47:00;14.70;;;13.18;;
17696;SDS011;8967;47.984;7.842;2022-08-19T13:49:32;13.50;;;12.13;;
17696;SDS011;8967;47.984;7.842;2022-08-19T13:52:02;13.23;;;11.82;;
17696;SDS011;8967;47.984;7.842;2022-08-19T13:54:30;15.35;;;13.73;;
17696;SDS011;8967;47.984;7.842;2022-08-19T13:56:59;13.85;;;12.32;;
17696;SDS011;8967;47.984;7.842;2022-08-19T13:59:26;15.85;;;12.13;;
17696;SDS011;8967;47.984;7.842;2022-08-19T14:01:56;13.45;;;11.30;;
17696;SDS011;8967;47.984;7.842;2022-08-19T14:04:24;15.70;;;11.52;;
17696;SDS011;8967;47.984;7.842;2022-08-19T14:06:53;12.55;;;11.25;;
17696;SDS011;8967;47.984;7.842;2022-08-19T14:09:21;11.32;;;10.23;;
17696;SDS011;8967;47.984;7.842;2022-08-19T14:11:48;11.68;;;10.55;;
17696;SDS011;8967;47.984;7.842;2022-08-19T14:14:17;12.00;;;10.05;;
17696;SDS011;8967;47.984;7.842;2022-08-19T14:16:44;11.23;;;10.23;;
17696;SDS011;8967;47.984;7.842;2022-08-19T14:19:11;14.55;;;9.75;;
17696;SDS011;8967;47.984;7.842;2022-08-19T14:21:38;12.23;;;10.70;;
17696;SDS011;8967;47.984;7.842;2022-08-19T14:24:06;13.45;;;10.32;;
17696;SDS011;8967;47.984;7.842;2022-08-19T14:26:33;10.30;;;8.75;;
17696;SDS011;8967;47.984;7.842;2022-08-19T14:29:00;12.20;;;9.80;;
17696;SDS011;8967;47.984;7.842;2022-08-19T14:31:29;11.15;;;10.05;;
17696;SDS011;8967;47.984;7.842;2022-08-19T14:33:56;11.77;;;10.63;;
17696;SDS011;8967;47.984;7.842;2022-08-19T14:36:23;10.50;;;9.55;;
17696;SDS011;8967;47.984;7.842;2022-08-19T14:38:50;10.88;;;9.77;;
17696;SDS011;8967;47.984;7.842;2022-08-19T14:41:19;11.25;;;10.15;;
17696;SDS011;8967;47.984;7.842;2022-08-19T14:43:48;11.80;;;10.60;;
17696;SDS011;8967;47.984;7.842;2022-08-19T14:46:18;13.45;;;12.07;;
17696;SDS011;8967;47.984;7.842;2022-08-19T14:48:48;11.82;;;10.63;;
17696;SDS011;8967;47.984;7.842;2022-08-19T14:51:16;11.43;;;10.25;;
17696;SDS011;8967;47.984;7.842;2022-08-19T14:53:43;12.23;;;10.93;;
17696;SDS011;8967;47.984;7.842;2022-08-19T14:56:14;12.80;;;11.52;;